Time;durP1;ratioP1;P1;durP2;ratioP2;P2;SDS_P1;SDS_P2;PMS_P1;PMS_P2;Temp;Humidity;BMP_temperature;BMP_pressure;BME280_temperature;BME280_humidity;BME280_pressure;Samples;Min_cycle;Max_cycle;Signal;HPM_P1;HPM_P2
2022/03/11 00:01:01;;;;;;;16.83;10.95;;;;;;;;;;5054097;28;20090;-80
2022/03/11 00:03:27;;;;;;;16.02;11.07;;;;;;;;;;5054212;28;20028;-79
2022/03/11 00:05:53;;;;;;;18.33;12.07;;;;;;;;;;5052924;28;20025;-79
2022/03/11 00:08:19;;;;;;;26.45;17.02;;;;;;;;;;5054016;28;20104;-79
2022/03/11 00:10:46;;;;;;;28.67;17.60;;;;;;;;;;5054301;28;20060;-79
2022/03/11 00:13:12;;;;;;;27.90;18.05;;;;;;;;;;5053775;28;20087;-79
2022/03/11 00:15:38;;;;;;;29.90;17.35;;;;;;;;;;5054249;28;20037;-79
2022/03/11 00:18:04;;;;;;;29.90;19.17;;;;;;;;;;5054277;28;20083;-79
2022/03/11 00:20:31;;;;;;;42.33;23.50;;;;;;;;;;5054012;28;20072;-79
2022/03/11 00:22:58;;;;;;;38.35;22.73;;;;;;;;;;5053791;28;20032;-79
2022/03/11 00:25:24;;;;;;;48.63;26.45;;;;;;;;;;5053759;28;20029;-79
2022/03/11 00:27:52;;;;;;;42.83;25.10;;;;;;;;;;5053984;28;20033;-80
2022/03/11 00:30:18;;;;;;;35.30;22.33;;;;;;;;;;5052369;28;20118;-79
2022/03/11 00:32:48;;;;;;;29.27;19.15;;;;;;;;;;5053878;28;20071;-81
2022/03/11 00:35:16;;;;;;;34.20;21.45;;;;;;;;;;5053420;28;20050;-80
2022/03/11 00:37:45;;;;;;;35.55;21.13;;;;;;;;;;5053705;28;20077;-80
2022/03/11 00:40:13;;;;;;;49.65;27.58;;;;;;;;;;5053082;28;20033;-81
2022/03/11 00:42:40;;;;;;;43.47;25.98;;;;;;;;;;5052790;28;20395;-78
2022/03/11 00:45:06;;;;;;;53.45;30.67;;;;;;;;;;5053084;28;20037;-78
2022/03/11 00:47:32;;;;;;;43.63;24.67;;;;;;;;;;5053671;28;20053;-77
2022/03/11 00:49:59;;;;;;;32.53;20.27;;;;;;;;;;5053202;28;20029;-79
2022/03/11 00:52:27;;;;;;;25.15;16.15;;;;;;;;;;5052592;28;20369;-79
2022/03/11 00:55:01;;;;;;;31.23;19.17;;;;;;;;;;5052830;28;20507;-80
2022/03/11 00:57:32;;;;;;;25.88;15.20;;;;;;;;;;5051344;28;20075;-79
2022/03/11 00:59:58;;;;;;;23.60;14.30;;;;;;;;;;5052844;28;20426;-80
2022/03/11 01:02:24;;;;;;;18.92;12.20;;;;;;;;;;5056425;28;20025;-79
2022/03/11 01:04:50;;;;;;;21.75;14.32;;;;;;;;;;5053996;28;20496;-79
2022/03/11 01:07:17;;;;;;;29.40;16.60;;;;;;;;;;5052772;28;20029;-79
2022/03/11 01:09:43;;;;;;;26.63;15.30;;;;;;;;;;5053209;28;20017;-79
2022/03/11 01:12:09;;;;;;;24.15;14.90;;;;;;;;;;5052820;28;20029;-79
2022/03/11 01:14:35;;;;;;;18.17;11.65;;;;;;;;;;5053122;28;20037;-79
2022/03/11 01:17:01;;;;;;;20.95;13.68;;;;;;;;;;5052913;28;20032;-79
2022/03/11 01:19:27;;;;;;;16.80;11.32;;;;;;;;;;5052719;28;20032;-79
2022/03/11 01:21:53;;;;;;;12.07;8.35;;;;;;;;;;5052997;28;20021;-79
2022/03/11 01:24:21;;;;;;;12.13;8.32;;;;;;;;;;5052639;28;20138;-79
2022/03/11 01:26:47;;;;;;;12.77;8.40;;;;;;;;;;5051599;28;20040;-79
2022/03/11 01:29:13;;;;;;;12.30;7.70;;;;;;;;;;5052648;28;20483;-79
2022/03/11 01:31:39;;;;;;;11.65;7.72;;;;;;;;;;5052830;28;20025;-79
2022/03/11 01:34:05;;;;;;;13.18;8.82;;;;;;;;;;5052819;28;20075;-79
2022/03/11 01:36:31;;;;;;;15.35;9.50;;;;;;;;;;5052487;28;20537;-79
2022/03/11 01:38:57;;;;;;;18.38;11.73;;;;;;;;;;5052722;28;20052;-79
2022/03/11 01:41:24;;;;;;;15.70;10.45;;;;;;;;;;5052276;28;20051;-80
2022/03/11 01:43:54;;;;;;;16.23;10.68;;;;;;;;;;5052415;28;20102;-79
2022/03/11 01:46:20;;;;;;;14.25;9.80;;;;;;;;;;5052068;28;20443;-79
2022/03/11 01:48:46;;;;;;;13.60;8.75;;;;;;;;;;5052354;28;20139;-79
2022/03/11 01:51:15;;;;;;;15.50;10.40;;;;;;;;;;5051974;28;20067;-79
2022/03/11 01:53:42;;;;;;;12.88;9.68;;;;;;;;;;5052466;28;20027;-79
2022/03/11 01:56:09;;;;;;;20.13;13.32;;;;;;;;;;5051018;28;20035;-79
2022/03/11 01:58:35;;;;;;;17.83;10.65;;;;;;;;;;5052231;28;20066;-79
2022/03/11 02:01:05;;;;;;;14.13;9.38;;;;;;;;;;5052293;28;20498;-80
2022/03/11 02:03:33;;;;;;;21.85;13.80;;;;;;;;;;5050615;28;20075;-80
2022/03/11 02:06:03;;;;;;;20.58;12.35;;;;;;;;;;5051858;28;20416;-79
2022/03/11 02:08:30;;;;;;;40.22;21.02;;;;;;;;;;5051969;28;20033;-80
2022/03/11 02:10:56;;;;;;;40.67;21.63;;;;;;;;;;5052383;28;20036;-79
2022/03/11 02:13:22;;;;;;;24.48;14.23;;;;;;;;;;5054529;28;20522;-80
2022/03/11 02:15:49;;;;;;;15.27;10.18;;;;;;;;;;5053785;28;20039;-79
2022/03/11 02:18:15;;;;;;;15.07;10.00;;;;;;;;;;5052009;28;20111;-79
2022/03/11 02:20:41;;;;;;;13.30;9.00;;;;;;;;;;5050823;28;20021;-79
2022/03/11 02:23:07;;;;;;;10.95;8.25;;;;;;;;;;5050847;28;20037;-79
2022/03/11 02:25:34;;;;;;;9.88;7.38;;;;;;;;;;5052023;28;20190;-80
2022/03/11 02:28:00;;;;;;;11.57;8.10;;;;;;;;;;5052245;28;20036;-79
2022/03/11 02:30:26;;;;;;;11.35;8.10;;;;;;;;;;5051850;28;20468;-80
2022/03/11 02:32:52;;;;;;;9.32;7.10;;;;;;;;;;5052072;28;20050;-79
2022/03/11 02:35:18;;;;;;;10.45;7.25;;;;;;;;;;5052033;28;20033;-80
2022/03/11 02:37:44;;;;;;;9.93;6.97;;;;;;;;;;5052016;28;20021;-80
2022/03/11 02:40:11;;;;;;;9.93;6.68;;;;;;;;;;5050699;28;20029;-79
2022/03/11 02:42:37;;;;;;;11.00;7.38;;;;;;;;;;5051905;28;20091;-80
2022/03/11 02:45:04;;;;;;;9.27;6.28;;;;;;;;;;5052196;28;20472;-79
2022/03/11 02:47:31;;;;;;;10.65;7.22;;;;;;;;;;5051815;28;20079;-80
2022/03/11 02:49:57;;;;;;;10.10;6.53;;;;;;;;;;5052349;28;20029;-80
2022/03/11 02:52:25;;;;;;;8.73;5.88;;;;;;;;;;5051895;28;20094;-80
2022/03/11 02:54:52;;;;;;;8.98;5.88;;;;;;;;;;5052388;28;20033;-80
2022/03/11 02:57:18;;;;;;;8.85;6.10;;;;;;;;;;5050659;28;20056;-80
2022/03/11 02:59:44;;;;;;;9.10;6.25;;;;;;;;;;5051726;28;20036;-79
2022/03/11 03:02:14;;;;;;;14.73;9.45;;;;;;;;;;5051872;28;20134;-80
2022/03/11 03:04:40;;;;;;;15.60;9.13;;;;;;;;;;5051727;28;20032;-80
2022/03/11 03:07:07;;;;;;;11.25;8.20;;;;;;;;;;5052179;28;20104;-80
2022/03/11 03:09:41;;;;;;;10.65;6.63;;;;;;;;;;5051591;28;20027;-80
2022/03/11 03:12:08;;;;;;;13.38;8.43;;;;;;;;;;5051898;28;20112;-80
2022/03/11 03:14:35;;;;;;;15.45;8.95;;;;;;;;;;5051698;28;20459;-81
2022/03/11 03:17:01;;;;;;;14.00;8.25;;;;;;;;;;5051989;28;20032;-80
2022/03/11 03:19:27;;;;;;;17.95;10.15;;;;;;;;;;5053034;28;20479;-80
2022/03/11 03:21:56;;;;;;;14.93;8.60;;;;;;;;;;5055277;28;20033;-81
2022/03/11 03:24:22;;;;;;;12.32;8.52;;;;;;;;;;5054900;28;20044;-79
2022/03/11 03:26:48;;;;;;;12.55;8.90;;;;;;;;;;5055109;28;20028;-79
2022/03/11 03:29:14;;;;;;;16.85;10.98;;;;;;;;;;5055040;28;20024;-78
2022/03/11 03:31:40;;;;;;;25.58;13.80;;;;;;;;;;5054793;28;20033;-79
2022/03/11 03:34:08;;;;;;;16.17;10.85;;;;;;;;;;5055056;28;20057;-82
2022/03/11 03:36:35;;;;;;;19.15;11.05;;;;;;;;;;5054658;28;20075;-79
2022/03/11 03:39:01;;;;;;;17.88;10.77;;;;;;;;;;5053724;28;20112;-79
2022/03/11 03:41:27;;;;;;;20.50;11.40;;;;;;;;;;5054643;28;20064;-79
2022/03/11 03:43:53;;;;;;;19.85;11.27;;;;;;;;;;5054744;28;20564;-80
2022/03/11 03:46:20;;;;;;;12.45;7.50;;;;;;;;;;5054691;28;20060;-80
2022/03/11 03:48:46;;;;;;;8.63;5.85;;;;;;;;;;5053281;28;20522;-80
2022/03/11 03:51:12;;;;;;;13.73;8.35;;;;;;;;;;5054654;28;20084;-80
2022/03/11 03:53:40;;;;;;;12.90;7.75;;;;;;;;;;5054388;28;20021;-80
2022/03/11 03:56:07;;;;;;;14.13;9.25;;;;;;;;;;5054530;28;20492;-80
2022/03/11 03:58:33;;;;;;;15.55;10.77;;;;;;;;;;5054349;28;20028;-80
2022/03/11 04:00:59;;;;;;;15.30;10.32;;;;;;;;;;5054453;28;20025;-80
2022/03/11 04:03:25;;;;;;;14.88;10.07;;;;;;;;;;5054432;28;20064;-80
2022/03/11 04:05:51;;;;;;;11.57;8.40;;;;;;;;;;5054594;28;20108;-80
2022/03/11 04:08:17;;;;;;;12.20;7.60;;;;;;;;;;5054697;28;20074;-80
2022/03/11 04:10:43;;;;;;;9.95;6.65;;;;;;;;;;5054278;28;20488;-80
2022/03/11 04:13:09;;;;;;;11.43;6.50;;;;;;;;;;5054439;28;20037;-80
2022/03/11 04:15:36;;;;;;;10.73;6.90;;;;;;;;;;5054470;28;20037;-79
2022/03/11 04:18:02;;;;;;;9.40;7.30;;;;;;;;;;5054230;28;20079;-80
2022/03/11 04:20:28;;;;;;;9.25;7.03;;;;;;;;;;5054316;28;20032;-79
2022/03/11 04:22:54;;;;;;;8.55;6.05;;;;;;;;;;5055136;28;20477;-79
2022/03/11 04:25:20;;;;;;;11.35;6.30;;;;;;;;;;5056869;28;20036;-80
2022/03/11 04:27:46;;;;;;;13.40;8.80;;;;;;;;;;5053877;28;20598;-79
2022/03/11 04:30:12;;;;;;;19.42;10.13;;;;;;;;;;5053529;28;20024;-79
2022/03/11 04:32:38;;;;;;;10.93;7.40;;;;;;;;;;5053833;28;20114;-79
2022/03/11 04:35:05;;;;;;;7.80;5.65;;;;;;;;;;5053814;28;20029;-79
2022/03/11 04:37:31;;;;;;;11.77;7.68;;;;;;;;;;5053587;28;20029;-80
2022/03/11 04:39:57;;;;;;;11.98;8.05;;;;;;;;;;5053626;28;20052;-80
2022/03/11 04:42:24;;;;;;;12.10;7.28;;;;;;;;;;5053573;28;20975;-80
2022/03/11 04:44:50;;;;;;;12.57;7.60;;;;;;;;;;5053552;28;20021;-80
2022/03/11 04:47:16;;;;;;;12.35;8.27;;;;;;;;;;5052405;28;20032;-80
2022/03/11 04:49:42;;;;;;;11.25;7.40;;;;;;;;;;5053569;28;20071;-80
2022/03/11 04:52:08;;;;;;;17.98;9.80;;;;;;;;;;5053123;28;20511;-80
2022/03/11 04:54:34;;;;;;;25.30;15.15;;;;;;;;;;5053492;28;20047;-80
2022/03/11 04:57:00;;;;;;;19.40;11.43;;;;;;;;;;5052001;28;20075;-80
2022/03/11 04:59:27;;;;;;;14.05;9.43;;;;;;;;;;5052986;28;20112;-80
2022/03/11 05:01:53;;;;;;;39.63;25.10;;;;;;;;;;5053306;28;20029;-80
2022/03/11 05:04:19;;;;;;;36.38;21.00;;;;;;;;;;5053163;28;20029;-80
2022/03/11 05:06:45;;;;;;;25.70;14.98;;;;;;;;;;5052038;28;20035;-81
2022/03/11 05:09:11;;;;;;;16.50;9.43;;;;;;;;;;5052988;28;20487;-80
2022/03/11 05:11:37;;;;;;;10.85;6.68;;;;;;;;;;5053152;28;20028;-80
2022/03/11 05:14:03;;;;;;;12.55;6.85;;;;;;;;;;5051822;28;20028;-80
2022/03/11 05:16:30;;;;;;;18.23;8.10;;;;;;;;;;5053080;28;20029;-77
2022/03/11 05:18:56;;;;;;;26.13;11.02;;;;;;;;;;5052662;28;20107;-81
2022/03/11 05:21:22;;;;;;;31.25;16.58;;;;;;;;;;5052645;28;20412;-77
2022/03/11 05:23:48;;;;;;;56.00;28.52;;;;;;;;;;5051246;28;20036;-80
2022/03/11 05:26:28;;;;;;;132.18;56.83;;;;;;;;;;5051261;28;20035;-82
2022/03/11 05:28:55;;;;;;;34.67;21.40;;;;;;;;;;5051340;28;20033;-81
2022/03/11 05:31:22;;;;;;;33.75;19.40;;;;;;;;;;5052755;28;20027;-80
2022/03/11 05:33:48;;;;;;;24.80;13.98;;;;;;;;;;5052620;28;20443;-80
2022/03/11 05:36:15;;;;;;;24.77;14.70;;;;;;;;;;5052612;28;20087;-81
2022/03/11 05:38:41;;;;;;;20.95;12.50;;;;;;;;;;5052491;28;20079;-79
2022/03/11 05:41:07;;;;;;;21.13;12.95;;;;;;;;;;5051531;28;20029;-81
2022/03/11 05:43:33;;;;;;;22.75;14.77;;;;;;;;;;5052492;28;20033;-81
2022/03/11 05:45:59;;;;;;;32.42;20.80;;;;;;;;;;5052185;28;20028;-79
2022/03/11 05:48:26;;;;;;;57.13;33.47;;;;;;;;;;5052352;28;20021;-82
2022/03/11 05:50:52;;;;;;;121.32;64.75;;;;;;;;;;5051745;28;20025;-80
2022/03/11 05:53:18;;;;;;;65.43;35.60;;;;;;;;;;5052349;28;20152;-82
2022/03/11 05:55:44;;;;;;;27.88;19.90;;;;;;;;;;5052351;28;20032;-83
2022/03/11 05:58:10;;;;;;;19.13;11.15;;;;;;;;;;5052106;28;20032;-80
2022/03/11 06:00:36;;;;;;;20.02;13.02;;;;;;;;;;5052329;28;20503;-79
2022/03/11 06:03:02;;;;;;;19.58;14.13;;;;;;;;;;5052067;28;20052;-83
2022/03/11 06:05:28;;;;;;;18.95;12.75;;;;;;;;;;5052403;28;20029;-81
2022/03/11 06:07:54;;;;;;;43.83;22.45;;;;;;;;;;5052323;28;20079;-78
2022/03/11 06:10:20;;;;;;;30.90;18.83;;;;;;;;;;5050653;28;20029;-81
2022/03/11 06:12:47;;;;;;;26.00;16.95;;;;;;;;;;5052027;28;20037;-78
2022/03/11 06:15:13;;;;;;;26.52;15.82;;;;;;;;;;5051817;28;20025;-83
2022/03/11 06:17:39;;;;;;;21.40;14.73;;;;;;;;;;5050743;28;20075;-79
2022/03/11 06:20:08;;;;;;;23.35;15.68;;;;;;;;;;5052030;28;20441;-78
2022/03/11 06:22:36;;;;;;;21.73;14.55;;;;;;;;;;5050136;28;20112;-80
2022/03/11 06:25:02;;;;;;;28.90;18.73;;;;;;;;;;5051608;28;20075;-78
2022/03/11 06:27:28;;;;;;;24.60;17.92;;;;;;;;;;5051214;28;20037;-77
2022/03/11 06:29:54;;;;;;;48.13;28.63;;;;;;;;;;5047810;28;20025;-79
2022/03/11 06:32:21;;;;;;;23.30;16.55;;;;;;;;;;5050502;28;20029;-82
2022/03/11 06:34:50;;;;;;;36.55;23.70;;;;;;;;;;5050202;28;20025;-80
2022/03/11 06:37:16;;;;;;;20.58;13.88;;;;;;;;;;5051066;28;20020;-78
2022/03/11 06:39:43;;;;;;;22.60;15.13;;;;;;;;;;5049025;28;20380;-78
2022/03/11 06:42:11;;;;;;;21.17;12.80;;;;;;;;;;5041907;28;20048;-78
2022/03/11 06:44:38;;;;;;;22.40;13.13;;;;;;;;;;5051022;28;20108;-77
2022/03/11 06:47:04;;;;;;;19.65;12.20;;;;;;;;;;5050824;28;20029;-77
2022/03/11 06:49:30;;;;;;;16.02;10.90;;;;;;;;;;5041125;28;20028;-79
2022/03/11 06:51:56;;;;;;;19.65;12.38;;;;;;;;;;5049973;28;20045;-78
2022/03/11 06:54:22;;;;;;;12.75;8.35;;;;;;;;;;5054305;28;20035;-79
2022/03/11 06:56:49;;;;;;;10.30;7.00;;;;;;;;;;5054795;28;20035;-79
2022/03/11 06:59:15;;;;;;;10.02;6.90;;;;;;;;;;5056430;28;20449;-78
2022/03/11 07:01:44;;;;;;;16.40;9.63;;;;;;;;;;5054255;28;20765;-77
2022/03/11 07:04:10;;;;;;;13.73;8.80;;;;;;;;;;5053544;28;20155;-78
2022/03/11 07:06:36;;;;;;;9.18;6.00;;;;;;;;;;5053799;28;20070;-78
2022/03/11 07:09:02;;;;;;;13.95;7.80;;;;;;;;;;5054089;28;20079;-77
2022/03/11 07:11:28;;;;;;;8.02;6.13;;;;;;;;;;5053757;28;20395;-78
2022/03/11 07:13:54;;;;;;;9.75;6.85;;;;;;;;;;5054024;28;20530;-77
2022/03/11 07:16:20;;;;;;;9.65;6.70;;;;;;;;;;5053950;28;20167;-77
2022/03/11 07:18:50;;;;;;;12.43;8.60;;;;;;;;;;5054114;28;20430;-75
2022/03/11 07:21:16;;;;;;;16.27;10.80;;;;;;;;;;5036335;28;20107;-76
2022/03/11 07:23:42;;;;;;;10.52;6.40;;;;;;;;;;5053145;28;20036;-76
2022/03/11 07:26:08;;;;;;;7.63;5.03;;;;;;;;;;5053278;28;20499;-78
2022/03/11 07:28:34;;;;;;;9.13;6.85;;;;;;;;;;5052932;28;20025;-78
2022/03/11 07:31:01;;;;;;;8.07;5.57;;;;;;;;;;5052332;28;20036;-77
2022/03/11 07:33:27;;;;;;;11.98;8.48;;;;;;;;;;5051394;28;20049;-76
2022/03/11 07:35:54;;;;;;;13.27;9.85;;;;;;;;;;5052923;28;20091;-77
2022/03/11 07:38:20;;;;;;;9.57;6.43;;;;;;;;;;5053013;28;20033;-77
2022/03/11 07:40:46;;;;;;;7.85;5.55;;;;;;;;;;5053374;28;20099;-79
2022/03/11 07:43:13;;;;;;;9.25;6.53;;;;;;;;;;5051378;28;20037;-78
2022/03/11 07:45:40;;;;;;;8.50;6.53;;;;;;;;;;5051723;28;20032;-79
2022/03/11 07:48:06;;;;;;;6.63;5.68;;;;;;;;;;5053193;28;20681;-80
2022/03/11 07:50:32;;;;;;;8.68;6.13;;;;;;;;;;5053361;28;20029;-79
2022/03/11 07:52:58;;;;;;;7.35;5.72;;;;;;;;;;5051898;28;20064;-78
2022/03/11 07:55:24;;;;;;;9.57;6.10;;;;;;;;;;5052325;28;20104;-79
2022/03/11 07:57:50;;;;;;;13.65;7.40;;;;;;;;;;5053225;28;20147;-77
2022/03/11 08:00:17;;;;;;;7.97;6.38;;;;;;;;;;5053015;28;20021;-79
2022/03/11 08:02:43;;;;;;;13.13;8.48;;;;;;;;;;5053078;28;20037;-78
2022/03/11 08:05:19;;;;;;;12.20;7.68;;;;;;;;;;5051952;28;20103;-76
2022/03/11 08:07:46;;;;;;;12.60;7.90;;;;;;;;;;5054151;28;20104;-77
2022/03/11 08:10:13;;;;;;;10.40;6.43;;;;;;;;;;5053374;28;20025;-77
2022/03/11 08:12:39;;;;;;;9.07;7.32;;;;;;;;;;5051313;28;20091;-78
2022/03/11 08:15:06;;;;;;;12.55;8.20;;;;;;;;;;5052454;28;20036;-78
2022/03/11 08:17:32;;;;;;;13.23;7.82;;;;;;;;;;5052813;28;20087;-77
2022/03/11 08:19:58;;;;;;;12.48;8.60;;;;;;;;;;5052850;28;20029;-77
2022/03/11 08:22:24;;;;;;;72.68;23.05;;;;;;;;;;5052387;28;20485;-78
2022/03/11 08:24:50;;;;;;;78.38;26.15;;;;;;;;;;5050830;28;20565;-77
2022/03/11 08:27:17;;;;;;;58.33;22.15;;;;;;;;;;5052386;28;20392;-78
2022/03/11 08:29:43;;;;;;;16.65;9.63;;;;;;;;;;5052498;28;20475;-77
2022/03/11 08:32:10;;;;;;;14.93;9.15;;;;;;;;;;5052665;28;20530;-78
2022/03/11 08:34:36;;;;;;;13.02;8.05;;;;;;;;;;5051714;28;20029;-76
2022/03/11 08:37:02;;;;;;;10.25;7.47;;;;;;;;;;5051769;28;20025;-76
2022/03/11 08:39:28;;;;;;;13.65;9.15;;;;;;;;;;5052123;28;20506;-76
2022/03/11 08:41:54;;;;;;;10.30;7.53;;;;;;;;;;5052576;28;20035;-76
2022/03/11 08:44:21;;;;;;;11.73;8.48;;;;;;;;;;5051637;28;20487;-76
2022/03/11 08:46:48;;;;;;;12.27;7.45;;;;;;;;;;5052290;28;20025;-77
2022/03/11 08:49:14;;;;;;;11.35;9.20;;;;;;;;;;5047468;28;20021;-77
2022/03/11 08:51:42;;;;;;;8.88;7.20;;;;;;;;;;5051292;28;20526;-79
2022/03/11 08:54:08;;;;;;;27.20;16.25;;;;;;;;;;5051051;28;20573;-77
2022/03/11 08:56:34;;;;;;;11.45;8.38;;;;;;;;;;5051347;28;20037;-79
2022/03/11 08:59:00;;;;;;;12.88;9.02;;;;;;;;;;5052194;28;20036;-80
2022/03/11 09:01:26;;;;;;;7.10;5.30;;;;;;;;;;5052618;28;20028;-80
2022/03/11 09:03:52;;;;;;;8.90;6.28;;;;;;;;;;5052160;28;20124;-78
2022/03/11 09:06:20;;;;;;;16.70;9.88;;;;;;;;;;5051692;28;20111;-78
2022/03/11 09:08:46;;;;;;;18.17;11.93;;;;;;;;;;5049642;28;20048;-79
2022/03/11 09:11:12;;;;;;;22.65;14.27;;;;;;;;;;5051730;28;20037;-76
2022/03/11 09:13:43;;;;;;;17.58;11.15;;;;;;;;;;5051506;28;20445;-78
2022/03/11 09:16:09;;;;;;;35.08;14.85;;;;;;;;;;5051635;28;20119;-78
2022/03/11 09:18:35;;;;;;;22.63;11.35;;;;;;;;;;5051272;28;20102;-70
2022/03/11 09:21:02;;;;;;;16.67;10.82;;;;;;;;;;5053977;28;20487;-77
2022/03/11 09:23:28;;;;;;;8.82;5.82;;;;;;;;;;5051658;28;20037;-80
2022/03/11 09:25:57;;;;;;;10.80;7.15;;;;;;;;;;5051625;28;20025;-80
2022/03/11 09:28:24;;;;;;;12.13;6.15;;;;;;;;;;5049993;28;20134;-80
2022/03/11 09:30:50;;;;;;;12.02;5.78;;;;;;;;;;5050853;28;20479;-75
2022/03/11 09:33:16;;;;;;;10.43;7.32;;;;;;;;;;5051394;28;20017;-77
2022/03/11 09:35:42;;;;;;;6.22;4.07;;;;;;;;;;5040246;28;20116;-78
2022/03/11 09:38:08;;;;;;;7.93;6.15;;;;;;;;;;5037294;28;20024;-78
2022/03/11 09:40:35;;;;;;;8.32;6.15;;;;;;;;;;5050190;28;20040;-78
2022/03/11 09:43:02;;;;;;;8.88;6.43;;;;;;;;;;5050351;28;20036;-78
2022/03/11 09:45:28;;;;;;;8.70;5.68;;;;;;;;;;5049209;28;20036;-79
2022/03/11 09:47:55;;;;;;;9.00;6.45;;;;;;;;;;5051734;28;20429;-77
2022/03/11 09:50:21;;;;;;;11.48;7.00;;;;;;;;;;5050902;28;20109;-78
2022/03/11 09:52:48;;;;;;;61.88;24.48;;;;;;;;;;5050645;28;20575;-77
2022/03/11 09:55:15;;;;;;;7.85;5.70;;;;;;;;;;5050656;28;20072;-78
2022/03/11 09:57:41;;;;;;;12.48;8.68;;;;;;;;;;5050849;28;20021;-82
2022/03/11 10:00:10;;;;;;;22.35;14.95;;;;;;;;;;5051233;28;20033;-79
2022/03/11 10:02:36;;;;;;;7.82;5.07;;;;;;;;;;5050475;28;20075;-76
2022/03/11 10:05:02;;;;;;;12.57;8.45;;;;;;;;;;5050865;28;20524;-79
2022/03/11 10:07:29;;;;;;;10.50;6.47;;;;;;;;;;5051016;28;20039;-79
2022/03/11 10:09:56;;;;;;;17.65;11.15;;;;;;;;;;5050910;28;20488;-78
2022/03/11 10:12:24;;;;;;;16.65;9.68;;;;;;;;;;5050846;28;20048;-82
2022/03/11 10:15:01;;;;;;;13.57;9.60;;;;;;;;;;5048628;28;20048;-77
2022/03/11 10:17:27;;;;;;;26.38;13.93;;;;;;;;;;5048976;28;20040;-78
2022/03/11 10:20:00;;;;;;;10.10;7.40;;;;;;;;;;5049952;28;20104;-79
2022/03/11 10:22:26;;;;;;;8.75;6.35;;;;;;;;;;5047262;28;20098;-78
2022/03/11 10:24:53;;;;;;;10.55;6.93;;;;;;;;;;5049770;28;20025;-79
2022/03/11 10:27:19;;;;;;;10.20;7.15;;;;;;;;;;5051396;28;20029;-77
2022/03/11 10:29:45;;;;;;;15.35;10.73;;;;;;;;;;5053118;28;20028;-79
2022/03/11 10:32:14;;;;;;;14.27;9.20;;;;;;;;;;5054520;28;20052;-78
2022/03/11 10:34:40;;;;;;;10.65;6.82;;;;;;;;;;5048304;28;20090;-80
2022/03/11 10:37:08;;;;;;;10.90;8.32;;;;;;;;;;5037224;28;20491;-79
2022/03/11 10:39:39;;;;;;;13.50;10.10;;;;;;;;;;5039114;28;20047;-78
2022/03/11 10:42:24;;;;;;;18.33;11.95;;;;;;;;;;5052423;28;20033;-79
2022/03/11 10:45:09;;;;;;;15.27;10.70;;;;;;;;;;5054254;28;20041;-78
2022/03/11 10:47:36;;;;;;;14.32;9.95;;;;;;;;;;5052679;28;20033;-78
2022/03/11 10:50:04;;;;;;;13.80;8.68;;;;;;;;;;5053498;28;20444;-79
2022/03/11 10:52:40;;;;;;;17.83;11.35;;;;;;;;;;5053308;28;20128;-78
2022/03/11 10:55:22;;;;;;;17.08;11.40;;;;;;;;;;5053206;28;20451;-80
2022/03/11 10:57:48;;;;;;;12.48;6.93;;;;;;;;;;5053122;28;20045;-77
2022/03/11 11:00:18;;;;;;;12.80;6.38;;;;;;;;;;5053573;28;20025;-77
2022/03/11 11:02:48;;;;;;;11.68;7.78;;;;;;;;;;5052594;28;20032;-76
2022/03/11 11:05:14;;;;;;;13.32;9.27;;;;;;;;;;5053315;28;20484;-77
2022/03/11 11:07:41;;;;;;;12.65;8.45;;;;;;;;;;5054046;28;20037;-76
2022/03/11 11:10:08;;;;;;;12.80;9.68;;;;;;;;;;5051028;28;20028;-76
2022/03/11 11:12:39;;;;;;;9.05;6.65;;;;;;;;;;5042977;28;20029;-78
2022/03/11 11:15:05;;;;;;;10.88;7.15;;;;;;;;;;5043177;28;20029;-76
2022/03/11 11:17:32;;;;;;;9.52;7.05;;;;;;;;;;5043396;28;20392;-75
2022/03/11 11:20:00;;;;;;;9.00;6.60;;;;;;;;;;5042467;28;20036;-79
2022/03/11 11:22:27;;;;;;;9.77;6.13;;;;;;;;;;5037655;28;20033;-76
2022/03/11 11:24:57;;;;;;;11.50;7.75;;;;;;;;;;5039165;28;20041;-77
2022/03/11 11:27:24;;;;;;;8.27;6.30;;;;;;;;;;5053327;28;20107;-76
2022/03/11 11:29:51;;;;;;;11.18;7.45;;;;;;;;;;5046510;28;20541;-81
2022/03/11 11:32:20;;;;;;;14.40;10.65;;;;;;;;;;5041290;28;20072;-78
2022/03/11 11:35:09;;;;;;;19.20;11.65;;;;;;;;;;5052964;28;20048;-78
2022/03/11 11:37:44;;;;;;;17.63;11.38;;;;;;;;;;5037688;28;20078;-77
2022/03/11 11:40:30;;;;;;;11.05;8.00;;;;;;;;;;5050517;28;20549;-77
2022/03/11 11:43:25;;;;;;;13.77;9.50;;;;;;;;;;5050996;28;20029;-77
2022/03/11 11:45:52;;;;;;;13.18;9.40;;;;;;;;;;5052864;28;20067;-77
2022/03/11 11:48:33;;;;;;;18.60;11.65;;;;;;;;;;5050476;28;20041;-77
2022/03/11 11:51:18;;;;;;;11.13;8.77;;;;;;;;;;5050501;28;20029;-77
2022/03/11 11:53:55;;;;;;;13.05;7.57;;;;;;;;;;5050132;28;20035;-75
2022/03/11 11:56:31;;;;;;;12.02;8.18;;;;;;;;;;5049973;28;20071;-77
2022/03/11 11:58:58;;;;;;;16.88;11.15;;;;;;;;;;5049292;28;20040;-75
2022/03/11 12:01:43;;;;;;;17.73;11.05;;;;;;;;;;5050836;28;20027;-75
2022/03/11 12:04:28;;;;;;;9.70;7.45;;;;;;;;;;5051573;28;20052;-80
2022/03/11 12:07:14;;;;;;;10.05;6.93;;;;;;;;;;5051067;28;20392;-78
2022/03/11 12:09:40;;;;;;;10.18;7.07;;;;;;;;;;5050644;28;20037;-77
2022/03/11 12:12:25;;;;;;;17.60;9.85;;;;;;;;;;5052553;28;20127;-79
2022/03/11 12:15:00;;;;;;;9.38;5.97;;;;;;;;;;5052704;28;20017;-77
2022/03/11 12:17:45;;;;;;;11.40;7.93;;;;;;;;;;5052028;28;20037;-75
2022/03/11 12:20:39;;;;;;;6.45;4.20;;;;;;;;;;5053663;28;20025;-77
2022/03/11 12:23:09;;;;;;;10.30;6.68;;;;;;;;;;5046156;28;20041;-77
2022/03/11 12:25:35;;;;;;;12.43;7.50;;;;;;;;;;5042911;28;20484;-75
2022/03/11 12:28:20;;;;;;;10.18;7.65;;;;;;;;;;5050739;28;20039;-78
2022/03/11 12:30:49;;;;;;;4.35;3.42;;;;;;;;;;5050010;28;20487;-79
2022/03/11 12:33:16;;;;;;;3.63;3.00;;;;;;;;;;5051134;28;20539;-77
2022/03/11 12:35:43;;;;;;;11.15;7.82;;;;;;;;;;5051680;28;20052;-78
2022/03/11 12:38:11;;;;;;;10.25;7.35;;;;;;;;;;5050840;28;20517;-80
2022/03/11 12:40:37;;;;;;;8.90;6.60;;;;;;;;;;5048604;28;20036;-77
2022/03/11 12:43:05;;;;;;;13.85;7.40;;;;;;;;;;5031696;28;20037;-76
2022/03/11 12:45:35;;;;;;;17.58;5.20;;;;;;;;;;5051437;28;20035;-80
2022/03/11 12:48:02;;;;;;;9.55;7.07;;;;;;;;;;5066604;28;20024;-76
2022/03/11 12:50:28;;;;;;;9.43;4.75;;;;;;;;;;5063624;28;20105;-75
2022/03/11 12:52:58;;;;;;;9.05;5.78;;;;;;;;;;5052430;28;20037;-81
2022/03/11 12:55:26;;;;;;;9.65;5.88;;;;;;;;;;5049957;28;20025;-75
2022/03/11 12:57:53;;;;;;;10.30;6.75;;;;;;;;;;5051490;28;20037;-77
2022/03/11 13:00:20;;;;;;;11.90;8.23;;;;;;;;;;5051515;28;20104;-77
2022/03/11 13:02:47;;;;;;;9.10;6.40;;;;;;;;;;5051653;28;20029;-76
2022/03/11 13:05:32;;;;;;;7.25;5.55;;;;;;;;;;5049028;28;20083;-80
2022/03/11 13:08:04;;;;;;;7.80;6.00;;;;;;;;;;5032568;28;20105;-79
2022/03/11 13:10:33;;;;;;;8.30;6.10;;;;;;;;;;5031579;28;20032;-79
2022/03/11 13:12:59;;;;;;;9.13;6.30;;;;;;;;;;5030522;28;20030;-72
2022/03/11 13:15:33;;;;;;;9.30;5.80;;;;;;;;;;5031330;28;20498;-84
2022/03/11 13:18:01;;;;;;;9.20;5.68;;;;;;;;;;5032377;28;20021;-86
2022/03/11 13:20:45;;;;;;;12.38;8.05;;;;;;;;;;5036061;28;20033;-77
2022/03/11 13:23:19;;;;;;;11.10;6.68;;;;;;;;;;5051455;28;20056;-80
2022/03/11 13:25:51;;;;;;;6.38;4.53;;;;;;;;;;5051808;28;20546;-76
2022/03/11 13:28:22;;;;;;;9.57;6.13;;;;;;;;;;5051199;28;20025;-78
2022/03/11 13:30:48;;;;;;;9.50;5.88;;;;;;;;;;5048597;28;20056;-79
2022/03/11 13:33:19;;;;;;;11.15;7.75;;;;;;;;;;5050735;28;20107;-77
2022/03/11 13:35:45;;;;;;;9.70;6.80;;;;;;;;;;5048317;28;20033;-78
2022/03/11 13:38:30;;;;;;;10.25;5.82;;;;;;;;;;5050969;28;20045;-81
2022/03/11 13:40:56;;;;;;;8.50;6.45;;;;;;;;;;5050869;28;20082;-80
2022/03/11 13:43:22;;;;;;;7.50;6.28;;;;;;;;;;5044692;28;20029;-80
2022/03/11 13:45:52;;;;;;;10.45;6.40;;;;;;;;;;5047451;28;20075;-78
2022/03/11 13:48:20;;;;;;;10.00;7.82;;;;;;;;;;5051180;28;20028;-77
2022/03/11 13:50:47;;;;;;;12.77;9.55;;;;;;;;;;5050791;28;20033;-78
2022/03/11 13:53:25;;;;;;;18.90;12.90;;;;;;;;;;5031185;28;20053;-78
2022/03/11 13:55:51;;;;;;;19.50;12.48;;;;;;;;;;5030789;28;20033;-78
2022/03/11 13:58:20;;;;;;;89.90;29.35;;;;;;;;;;5048068;28;20079;-78
2022/03/11 14:00:48;;;;;;;167.10;54.28;;;;;;;;;;5049354;28;20044;-77
2022/03/11 14:03:15;;;;;;;14.75;9.40;;;;;;;;;;5045268;28;20432;-78
2022/03/11 14:05:41;;;;;;;8.23;5.70;;;;;;;;;;5050403;28;20028;-81
2022/03/11 14:08:07;;;;;;;12.25;8.02;;;;;;;;;;5050558;28;20033;-76
2022/03/11 14:10:38;;;;;;;8.27;5.97;;;;;;;;;;5050948;28;20036;-81
2022/03/11 14:13:12;;;;;;;8.50;6.47;;;;;;;;;;5050855;28;20036;-79
2022/03/11 14:15:39;;;;;;;10.65;7.13;;;;;;;;;;5049056;28;20029;-79
2022/03/11 14:18:08;;;;;;;11.23;6.90;;;;;;;;;;5050990;28;20025;-80
2022/03/11 14:20:34;;;;;;;10.63;7.63;;;;;;;;;;5050700;28;20025;-77
2022/03/11 14:23:00;;;;;;;9.82;6.25;;;;;;;;;;5050703;28;20487;-78
2022/03/11 14:25:28;;;;;;;11.35;8.68;;;;;;;;;;5051186;28;20047;-77
2022/03/11 14:27:54;;;;;;;13.60;9.85;;;;;;;;;;5050144;28;20060;-80
2022/03/11 14:30:22;;;;;;;9.80;6.78;;;;;;;;;;5050572;28;20036;-83
2022/03/11 14:32:48;;;;;;;14.10;9.35;;;;;;;;;;5050591;28;20028;-75